sensor_id;sensor_type;location;lat;lon;timestamp;P1;durP1;ratioP1;P2;durP2;ratioP2
44078;SDS011;29744;49.078;12.878;2023-04-03T00:02:10;1.95;;;0.90;;
44078;SDS011;29744;49.078;12.878;2023-04-03T00:07:11;1.77;;;0.90;;
44078;SDS011;29744;49.078;12.878;2023-04-03T00:12:12;0.88;;;0.80;;
44078;SDS011;29744;49.078;12.878;2023-04-03T00:17:12;0.93;;;0.70;;
44078;SDS011;29744;49.078;12.878;2023-04-03T00:22:12;0.93;;;0.80;;
44078;SDS011;29744;49.078;12.878;2023-04-03T00:27:13;1.30;;;0.77;;
44078;SDS011;29744;49.078;12.878;2023-04-03T00:32:13;1.67;;;0.88;;
44078;SDS011;29744;49.078;12.878;2023-04-03T00:37:13;1.13;;;0.77;;
44078;SDS011;29744;49.078;12.878;2023-04-03T00:42:14;1.92;;;1.00;;
44078;SDS011;29744;49.078;12.878;2023-04-03T00:47:16;1.38;;;0.90;;
44078;SDS011;29744;49.078;12.878;2023-04-03T00:52:18;1.05;;;0.70;;
44078;SDS011;29744;49.078;12.878;2023-04-03T00:57:21;1.17;;;0.73;;
44078;SDS011;29744;49.078;12.878;2023-04-03T01:02:22;1.08;;;0.73;;
44078;SDS011;29744;49.078;12.878;2023-04-03T01:07:24;1.35;;;0.80;;
44078;SDS011;29744;49.078;12.878;2023-04-03T01:12:32;1.88;;;0.90;;
44078;SDS011;29744;49.078;12.878;2023-04-03T01:17:38;1.55;;;0.88;;
44078;SDS011;29744;49.078;12.878;2023-04-03T01:27:50;1.52;;;0.82;;
44078;SDS011;29744;49.078;12.878;2023-04-03T01:32:50;0.85;;;0.60;;
44078;SDS011;29744;49.078;12.878;2023-04-03T01:37:50;1.70;;;0.90;;
44078;SDS011;29744;49.078;12.878;2023-04-03T01:42:51;1.40;;;0.77;;
44078;SDS011;29744;49.078;12.878;2023-04-03T01:47:51;1.23;;;0.70;;
44078;SDS011;29744;49.078;12.878;2023-04-03T01:52:51;1.60;;;1.08;;
44078;SDS011;29744;49.078;12.878;2023-04-03T01:57:52;1.20;;;0.73;;
44078;SDS011;29744;49.078;12.878;2023-04-03T02:02:52;1.30;;;0.77;;
44078;SDS011;29744;49.078;12.878;2023-04-03T02:07:52;1.30;;;0.85;;
44078;SDS011;29744;49.078;12.878;2023-04-03T02:12:53;1.20;;;0.60;;
44078;SDS011;29744;49.078;12.878;2023-04-03T02:17:53;1.65;;;1.00;;
44078;SDS011;29744;49.078;12.878;2023-04-03T02:22:54;1.63;;;0.88;;
44078;SDS011;29744;49.078;12.878;2023-04-03T02:27:54;1.17;;;0.77;;
44078;SDS011;29744;49.078;12.878;2023-04-03T02:32:54;1.13;;;0.77;;
44078;SDS011;29744;49.078;12.878;2023-04-03T02:37:55;1.67;;;1.00;;
44078;SDS011;29744;49.078;12.878;2023-04-03T02:42:55;1.25;;;0.70;;
44078;SDS011;29744;49.078;12.878;2023-04-03T02:47:56;1.45;;;0.90;;
44078;SDS011;29744;49.078;12.878;2023-04-03T02:52:56;1.45;;;0.80;;
44078;SDS011;29744;49.078;12.878;2023-04-03T02:57:56;1.88;;;0.77;;
44078;SDS011;29744;49.078;12.878;2023-04-03T03:02:57;1.52;;;0.85;;
44078;SDS011;29744;49.078;12.878;2023-04-03T03:07:57;1.25;;;0.90;;
44078;SDS011;29744;49.078;12.878;2023-04-03T03:12:57;1.38;;;0.80;;
44078;SDS011;29744;49.078;12.878;2023-04-03T03:17:57;1.95;;;1.02;;
44078;SDS011;29744;49.078;12.878;2023-04-03T03:22:58;0.95;;;0.60;;
44078;SDS011;29744;49.078;12.878;2023-04-03T03:27:58;1.15;;;0.70;;
44078;SDS011;29744;49.078;12.878;2023-04-03T03:32:58;2.05;;;0.80;;
44078;SDS011;29744;49.078;12.878;2023-04-03T03:37:59;1.50;;;0.80;;
44078;SDS011;29744;49.078;12.878;2023-04-03T03:42:59;1.55;;;0.80;;
44078;SDS011;29744;49.078;12.878;2023-04-03T03:48:00;0.98;;;0.70;;
44078;SDS011;29744;49.078;12.878;2023-04-03T03:53:00;1.27;;;0.77;;
44078;SDS011;29744;49.078;12.878;2023-04-03T03:58:01;1.23;;;0.75;;
44078;SDS011;29744;49.078;12.878;2023-04-03T04:03:01;1.50;;;0.85;;
44078;SDS011;29744;49.078;12.878;2023-04-03T04:08:02;1.40;;;0.77;;
44078;SDS011;29744;49.078;12.878;2023-04-03T04:13:02;1.35;;;0.80;;
44078;SDS011;29744;49.078;12.878;2023-04-03T04:18:02;1.45;;;0.75;;
44078;SDS011;29744;49.078;12.878;2023-04-03T04:23:03;0.90;;;0.60;;
44078;SDS011;29744;49.078;12.878;2023-04-03T04:28:03;1.00;;;0.77;;
44078;SDS011;29744;49.078;12.878;2023-04-03T04:33:04;1.33;;;0.70;;
44078;SDS011;29744;49.078;12.878;2023-04-03T04:38:05;0.77;;;0.55;;
44078;SDS011;29744;49.078;12.878;2023-04-03T04:43:05;1.25;;;0.75;;
44078;SDS011;29744;49.078;12.878;2023-04-03T04:48:06;1.13;;;0.60;;
44078;SDS011;29744;49.078;12.878;2023-04-03T04:53:06;1.63;;;0.70;;
44078;SDS011;29744;49.078;12.878;2023-04-03T04:58:06;1.55;;;0.80;;
44078;SDS011;29744;49.078;12.878;2023-04-03T05:03:06;0.75;;;0.63;;
44078;SDS011;29744;49.078;12.878;2023-04-03T05:08:07;1.55;;;0.73;;
44078;SDS011;29744;49.078;12.878;2023-04-03T05:13:08;1.25;;;0.80;;
44078;SDS011;29744;49.078;12.878;2023-04-03T05:18:08;1.05;;;0.60;;
44078;SDS011;29744;49.078;12.878;2023-04-03T05:23:09;0.93;;;0.63;;
44078;SDS011;29744;49.078;12.878;2023-04-03T05:28:11;0.55;;;0.52;;
44078;SDS011;29744;49.078;12.878;2023-04-03T05:33:11;0.98;;;0.60;;
44078;SDS011;29744;49.078;12.878;2023-04-03T05:38:12;1.10;;;0.52;;
44078;SDS011;29744;49.078;12.878;2023-04-03T05:43:12;0.93;;;0.60;;
44078;SDS011;29744;49.078;12.878;2023-04-03T05:48:13;0.60;;;0.52;;
44078;SDS011;29744;49.078;12.878;2023-04-03T05:53:18;1.35;;;0.70;;
44078;SDS011;29744;49.078;12.878;2023-04-03T05:58:21;1.48;;;0.70;;
44078;SDS011;29744;49.078;12.878;2023-04-03T06:03:22;1.42;;;0.60;;
44078;SDS011;29744;49.078;12.878;2023-04-03T06:08:22;1.20;;;0.70;;
44078;SDS011;29744;49.078;12.878;2023-04-03T06:13:23;0.90;;;0.50;;
44078;SDS011;29744;49.078;12.878;2023-04-03T06:18:24;0.98;;;0.65;;
44078;SDS011;29744;49.078;12.878;2023-04-03T06:23:24;0.63;;;0.60;;
44078;SDS011;29744;49.078;12.878;2023-04-03T06:28:25;1.15;;;0.60;;
44078;SDS011;29744;49.078;12.878;2023-04-03T06:33:25;0.60;;;0.52;;
44078;SDS011;29744;49.078;12.878;2023-04-03T06:38:26;0.88;;;0.60;;
44078;SDS011;29744;49.078;12.878;2023-04-03T06:43:26;0.93;;;0.55;;
44078;SDS011;29744;49.078;12.878;2023-04-03T06:48:26;0.80;;;0.60;;
44078;SDS011;29744;49.078;12.878;2023-04-03T06:53:27;1.38;;;0.68;;
44078;SDS011;29744;49.078;12.878;2023-04-03T06:58:27;1.70;;;0.70;;
44078;SDS011;29744;49.078;12.878;2023-04-03T07:03:27;0.68;;;0.57;;
44078;SDS011;29744;49.078;12.878;2023-04-03T07:08:28;0.80;;;0.60;;
44078;SDS011;29744;49.078;12.878;2023-04-03T07:13:28;1.05;;;0.68;;
44078;SDS011;29744;49.078;12.878;2023-04-03T07:18:29;0.80;;;0.57;;
44078;SDS011;29744;49.078;12.878;2023-04-03T07:23:29;0.90;;;0.60;;
44078;SDS011;29744;49.078;12.878;2023-04-03T07:28:29;1.10;;;0.50;;
44078;SDS011;29744;49.078;12.878;2023-04-03T07:33:30;1.17;;;0.50;;
44078;SDS011;29744;49.078;12.878;2023-04-03T07:38:31;0.63;;;0.50;;
44078;SDS011;29744;49.078;12.878;2023-04-03T07:43:31;0.60;;;0.40;;
44078;SDS011;29744;49.078;12.878;2023-04-03T07:48:31;0.63;;;0.60;;
44078;SDS011;29744;49.078;12.878;2023-04-03T07:53:32;1.02;;;0.60;;
44078;SDS011;29744;49.078;12.878;2023-04-03T07:58:33;1.20;;;0.60;;
44078;SDS011;29744;49.078;12.878;2023-04-03T08:03:33;0.63;;;0.50;;
44078;SDS011;29744;49.078;12.878;2023-04-03T08:08:34;0.60;;;0.50;;
44078;SDS011;29744;49.078;12.878;2023-04-03T08:13:35;1.17;;;0.70;;
44078;SDS011;29744;49.078;12.878;2023-04-03T08:18:35;0.60;;;0.50;;
44078;SDS011;29744;49.078;12.878;2023-04-03T08:23:36;0.88;;;0.57;;
44078;SDS011;29744;49.078;12.878;2023-04-03T08:28:36;1.17;;;0.70;;
44078;SDS011;29744;49.078;12.878;2023-04-03T08:33:38;0.85;;;0.55;;
44078;SDS011;29744;49.078;12.878;2023-04-03T08:38:39;2.22;;;0.60;;
44078;SDS011;29744;49.078;12.878;2023-04-03T08:43:47;0.85;;;0.60;;
44078;SDS011;29744;49.078;12.878;2023-04-03T08:48:58;1.15;;;0.70;;
44078;SDS011;29744;49.078;12.878;2023-04-03T08:54:01;0.77;;;0.57;;
44078;SDS011;29744;49.078;12.878;2023-04-03T08:59:06;1.20;;;0.70;;
44078;SDS011;29744;49.078;12.878;2023-04-03T09:04:14;1.08;;;0.70;;
44078;SDS011;29744;49.078;12.878;2023-04-03T09:14:36;0.98;;;0.70;;
44078;SDS011;29744;49.078;12.878;2023-04-03T09:19:49;1.35;;;0.60;;
44078;SDS011;29744;49.078;12.878;2023-04-03T09:24:58;1.70;;;0.70;;
44078;SDS011;29744;49.078;12.878;2023-04-03T09:30:02;1.17;;;0.80;;
44078;SDS011;29744;49.078;12.878;2023-04-03T09:35:04;0.98;;;0.70;;
44078;SDS011;29744;49.078;12.878;2023-04-03T09:45:27;1.45;;;0.80;;
44078;SDS011;29744;49.078;12.878;2023-04-03T09:50:31;1.13;;;0.63;;
44078;SDS011;29744;49.078;12.878;2023-04-03T09:55:32;1.20;;;0.60;;
44078;SDS011;29744;49.078;12.878;2023-04-03T10:00:36;1.65;;;0.70;;
44078;SDS011;29744;49.078;12.878;2023-04-03T10:05:39;1.37;;;0.73;;
44078;SDS011;29744;49.078;12.878;2023-04-03T10:10:42;1.00;;;0.70;;
44078;SDS011;29744;49.078;12.878;2023-04-03T10:15:46;1.10;;;0.68;;
44078;SDS011;29744;49.078;12.878;2023-04-03T10:20:57;0.90;;;0.60;;
44078;SDS011;29744;49.078;12.878;2023-04-03T10:26:16;1.10;;;0.68;;
44078;SDS011;29744;49.078;12.878;2023-04-03T10:37:06;1.48;;;0.80;;
44078;SDS011;29744;49.078;12.878;2023-04-03T10:42:11;1.98;;;0.70;;
44078;SDS011;29744;49.078;12.878;2023-04-03T10:47:20;1.60;;;0.68;;
44078;SDS011;29744;49.078;12.878;2023-04-03T10:52:44;0.90;;;0.60;;
44078;SDS011;29744;49.078;12.878;2023-04-03T10:57:55;2.08;;;1.10;;
44078;SDS011;29744;49.078;12.878;2023-04-03T11:02:59;2.50;;;1.30;;
44078;SDS011;29744;49.078;12.878;2023-04-03T11:13:13;2.75;;;1.08;;
44078;SDS011;29744;49.078;12.878;2023-04-03T11:18:21;2.63;;;1.08;;
44078;SDS011;29744;49.078;12.878;2023-04-03T11:23:44;2.75;;;1.10;;
44078;SDS011;29744;49.078;12.878;2023-04-03T11:28:46;5.72;;;1.38;;
44078;SDS011;29744;49.078;12.878;2023-04-03T11:34:08;2.45;;;1.30;;
44078;SDS011;29744;49.078;12.878;2023-04-03T11:39:26;2.00;;;1.08;;
44078;SDS011;29744;49.078;12.878;2023-04-03T11:44:35;2.45;;;1.10;;
44078;SDS011;29744;49.078;12.878;2023-04-03T11:49:50;3.47;;;1.00;;
44078;SDS011;29744;49.078;12.878;2023-04-03T11:54:59;3.28;;;1.25;;
44078;SDS011;29744;49.078;12.878;2023-04-03T11:59:59;1.35;;;0.90;;
44078;SDS011;29744;49.078;12.878;2023-04-03T12:05:46;2.75;;;1.20;;
44078;SDS011;29744;49.078;12.878;2023-04-03T12:10:29;1.67;;;0.95;;
44078;SDS011;29744;49.078;12.878;2023-04-03T12:15:49;1.92;;;1.00;;
44078;SDS011;29744;49.078;12.878;2023-04-03T12:25:52;3.55;;;1.05;;
44078;SDS011;29744;49.078;12.878;2023-04-03T12:31:05;2.50;;;1.00;;
44078;SDS011;29744;49.078;12.878;2023-04-03T12:36:11;2.10;;;1.05;;
44078;SDS011;29744;49.078;12.878;2023-04-03T12:41:31;2.88;;;1.00;;
44078;SDS011;29744;49.078;12.878;2023-04-03T12:46:58;3.05;;;1.20;;
44078;SDS011;29744;49.078;12.878;2023-04-03T12:52:00;1.92;;;0.95;;
44078;SDS011;29744;49.078;12.878;2023-04-03T12:57:09;2.38;;;0.95;;
44078;SDS011;29744;49.078;12.878;2023-04-03T13:02:21;2.97;;;1.27;;
44078;SDS011;29744;49.078;12.878;2023-04-03T13:07:29;2.78;;;1.08;;
44078;SDS011;29744;49.078;12.878;2023-04-03T13:12:33;1.95;;;1.02;;
44078;SDS011;29744;49.078;12.878;2023-04-03T13:17:37;1.75;;;0.88;;
44078;SDS011;29744;49.078;12.878;2023-04-03T13:22:40;2.28;;;1.00;;
44078;SDS011;29744;49.078;12.878;2023-04-03T13:27:51;2.03;;;0.90;;
44078;SDS011;29744;49.078;12.878;2023-04-03T13:32:52;1.65;;;0.80;;
44078;SDS011;29744;49.078;12.878;2023-04-03T13:37:55;2.15;;;1.02;;
44078;SDS011;29744;49.078;12.878;2023-04-03T13:43:02;1.77;;;0.80;;
44078;SDS011;29744;49.078;12.878;2023-04-03T13:48:18;2.22;;;0.85;;
44078;SDS011;29744;49.078;12.878;2023-04-03T13:53:19;2.45;;;1.08;;
44078;SDS011;29744;49.078;12.878;2023-04-03T13:58:21;1.75;;;1.00;;
44078;SDS011;29744;49.078;12.878;2023-04-03T14:03:31;1.30;;;0.90;;
44078;SDS011;29744;49.078;12.878;2023-04-03T14:08:44;1.70;;;0.93;;
44078;SDS011;29744;49.078;12.878;2023-04-03T14:13:45;2.17;;;1.00;;
44078;SDS011;29744;49.078;12.878;2023-04-03T14:18:48;1.20;;;0.70;;
44078;SDS011;29744;49.078;12.878;2023-04-03T14:23:49;1.88;;;0.90;;
44078;SDS011;29744;49.078;12.878;2023-04-03T14:28:51;2.20;;;0.90;;
44078;SDS011;29744;49.078;12.878;2023-04-03T14:33:53;1.83;;;0.90;;
44078;SDS011;29744;49.078;12.878;2023-04-03T14:38:54;1.17;;;0.80;;
44078;SDS011;29744;49.078;12.878;2023-04-03T14:43:55;1.52;;;0.90;;
44078;SDS011;29744;49.078;12.878;2023-04-03T14:48:56;1.90;;;0.75;;
44078;SDS011;29744;49.078;12.878;2023-04-03T14:53:56;2.00;;;1.05;;
44078;SDS011;29744;49.078;12.878;2023-04-03T14:58:58;1.48;;;0.80;;
44078;SDS011;29744;49.078;12.878;2023-04-03T15:04:00;2.03;;;0.77;;
44078;SDS011;29744;49.078;12.878;2023-04-03T15:09:00;2.08;;;0.90;;
44078;SDS011;29744;49.078;12.878;2023-04-03T15:14:01;1.50;;;0.70;;
44078;SDS011;29744;49.078;12.878;2023-04-03T15:19:01;1.40;;;0.90;;
44078;SDS011;29744;49.078;12.878;2023-04-03T15:24:01;1.33;;;0.82;;
44078;SDS011;29744;49.078;12.878;2023-04-03T15:29:02;1.60;;;0.80;;
44078;SDS011;29744;49.078;12.878;2023-04-03T15:34:04;1.10;;;0.68;;
44078;SDS011;29744;49.078;12.878;2023-04-03T15:39:04;1.83;;;0.85;;
44078;SDS011;29744;49.078;12.878;2023-04-03T15:44:04;2.03;;;0.80;;
44078;SDS011;29744;49.078;12.878;2023-04-03T15:49:05;1.40;;;0.80;;
44078;SDS011;29744;49.078;12.878;2023-04-03T15:54:05;1.17;;;0.82;;
44078;SDS011;29744;49.078;12.878;2023-04-03T15:59:06;1.27;;;0.70;;
44078;SDS011;29744;49.078;12.878;2023-04-03T16:04:07;1.02;;;0.70;;
44078;SDS011;29744;49.078;12.878;2023-04-03T16:09:09;1.50;;;0.80;;
44078;SDS011;29744;49.078;12.878;2023-04-03T16:14:10;1.75;;;0.82;;
44078;SDS011;29744;49.078;12.878;2023-04-03T16:19:10;1.65;;;0.70;;
44078;SDS011;29744;49.078;12.878;2023-04-03T16:24:10;1.30;;;0.70;;
44078;SDS011;29744;49.078;12.878;2023-04-03T16:29:11;1.48;;;0.90;;
44078;SDS011;29744;49.078;12.878;2023-04-03T16:34:11;0.57;;;0.47;;
44078;SDS011;29744;49.078;12.878;2023-04-03T16:39:12;1.27;;;0.80;;
44078;SDS011;29744;49.078;12.878;2023-04-03T16:44:12;1.00;;;0.65;;
44078;SDS011;29744;49.078;12.878;2023-04-03T16:49:13;3.40;;;0.90;;
44078;SDS011;29744;49.078;12.878;2023-04-03T16:54:14;1.00;;;0.60;;
44078;SDS011;29744;49.078;12.878;2023-04-03T16:59:14;1.20;;;0.73;;
44078;SDS011;29744;49.078;12.878;2023-04-03T17:04:15;1.25;;;0.80;;
44078;SDS011;29744;49.078;12.878;2023-04-03T17:09:15;1.67;;;1.00;;
44078;SDS011;29744;49.078;12.878;2023-04-03T17:14:16;1.60;;;0.80;;
44078;SDS011;29744;49.078;12.878;2023-04-03T17:19:16;1.17;;;0.70;;
44078;SDS011;29744;49.078;12.878;2023-04-03T17:24:17;1.50;;;0.75;;
44078;SDS011;29744;49.078;12.878;2023-04-03T17:29:17;1.50;;;0.77;;
44078;SDS011;29744;49.078;12.878;2023-04-03T17:34:18;1.55;;;0.70;;
44078;SDS011;29744;49.078;12.878;2023-04-03T17:39:18;1.45;;;0.80;;
44078;SDS011;29744;49.078;12.878;2023-04-03T17:44:18;1.38;;;0.80;;
44078;SDS011;29744;49.078;12.878;2023-04-03T17:49:19;1.55;;;0.88;;
44078;SDS011;29744;49.078;12.878;2023-04-03T17:54:21;0.90;;;0.60;;
44078;SDS011;29744;49.078;12.878;2023-04-03T17:59:21;0.82;;;0.60;;
44078;SDS011;29744;49.078;12.878;2023-04-03T18:04:21;1.92;;;0.75;;
44078;SDS011;29744;49.078;12.878;2023-04-03T18:09:24;1.27;;;0.70;;
44078;SDS011;29744;49.078;12.878;2023-04-03T18:14:28;1.45;;;0.60;;
44078;SDS011;29744;49.078;12.878;2023-04-03T18:19:28;1.30;;;0.73;;
44078;SDS011;29744;49.078;12.878;2023-04-03T18:24:30;1.08;;;0.60;;
44078;SDS011;29744;49.078;12.878;2023-04-03T18:29:32;1.02;;;0.60;;
44078;SDS011;29744;49.078;12.878;2023-04-03T18:34:36;1.45;;;0.70;;
44078;SDS011;29744;49.078;12.878;2023-04-03T18:39:37;1.17;;;0.65;;
44078;SDS011;29744;49.078;12.878;2023-04-03T18:44:37;1.10;;;0.70;;
44078;SDS011;29744;49.078;12.878;2023-04-03T18:49:39;0.82;;;0.50;;
44078;SDS011;29744;49.078;12.878;2023-04-03T18:54:41;0.75;;;0.50;;
44078;SDS011;29744;49.078;12.878;2023-04-03T18:59:42;1.52;;;0.60;;
44078;SDS011;29744;49.078;12.878;2023-04-03T19:04:42;1.58;;;0.52;;
44078;SDS011;29744;49.078;12.878;2023-04-03T19:09:43;1.40;;;0.70;;
44078;SDS011;29744;49.078;12.878;2023-04-03T19:14:43;1.40;;;0.70;;
44078;SDS011;29744;49.078;12.878;2023-04-03T19:19:43;0.93;;;0.60;;
44078;SDS011;29744;49.078;12.878;2023-04-03T19:24:44;0.88;;;0.50;;
44078;SDS011;29744;49.078;12.878;2023-04-03T19:29:44;1.08;;;0.63;;
44078;SDS011;29744;49.078;12.878;2023-04-03T19:34:48;1.23;;;0.70;;
44078;SDS011;29744;49.078;12.878;2023-04-03T19:39:48;1.38;;;0.70;;
44078;SDS011;29744;49.078;12.878;2023-04-03T19:44:48;0.77;;;0.60;;
44078;SDS011;29744;49.078;12.878;2023-04-03T19:49:50;0.98;;;0.57;;
44078;SDS011;29744;49.078;12.878;2023-04-03T19:54:50;0.55;;;0.43;;
44078;SDS011;29744;49.078;12.878;2023-04-03T19:59:51;1.38;;;0.68;;
44078;SDS011;29744;49.078;12.878;2023-04-03T20:04:51;0.47;;;0.40;;
44078;SDS011;29744;49.078;12.878;2023-04-03T20:09:51;1.10;;;0.55;;
44078;SDS011;29744;49.078;12.878;2023-04-03T20:14:52;0.90;;;0.50;;
44078;SDS011;29744;49.078;12.878;2023-04-03T20:19:52;0.90;;;0.50;;
44078;SDS011;29744;49.078;12.878;2023-04-03T20:24:53;3.88;;;0.60;;
44078;SDS011;29744;49.078;12.878;2023-04-03T20:29:53;0.88;;;0.60;;
44078;SDS011;29744;49.078;12.878;2023-04-03T20:34:53;0.57;;;0.40;;
44078;SDS011;29744;49.078;12.878;2023-04-03T20:39:54;0.60;;;0.50;;
44078;SDS011;29744;49.078;12.878;2023-04-03T20:44:54;0.80;;;0.40;;
44078;SDS011;29744;49.078;12.878;2023-04-03T20:49:56;1.17;;;0.57;;
44078;SDS011;29744;49.078;12.878;2023-04-03T20:54:56;0.50;;;0.35;;
44078;SDS011;29744;49.078;12.878;2023-04-03T20:59:56;1.65;;;0.60;;
44078;SDS011;29744;49.078;12.878;2023-04-03T21:04:57;0.60;;;0.50;;
44078;SDS011;29744;49.078;12.878;2023-04-03T21:20:45;1.02;;;0.60;;
44078;SDS011;29744;49.078;12.878;2023-04-03T21:25:47;0.93;;;0.60;;
44078;SDS011;29744;49.078;12.878;2023-04-03T21:30:48;0.65;;;0.40;;
44078;SDS011;29744;49.078;12.878;2023-04-03T21:35:48;0.82;;;0.50;;
44078;SDS011;29744;49.078;12.878;2023-04-03T21:40:56;0.95;;;0.60;;
44078;SDS011;29744;49.078;12.878;2023-04-03T21:45:57;1.02;;;0.60;;
44078;SDS011;29744;49.078;12.878;2023-04-03T21:51:04;0.47;;;0.40;;
44078;SDS011;29744;49.078;12.878;2023-04-03T21:56:05;0.88;;;0.50;;
44078;SDS011;29744;49.078;12.878;2023-04-03T22:01:12;0.60;;;0.40;;
44078;SDS011;29744;49.078;12.878;2023-04-03T22:06:14;0.75;;;0.40;;
44078;SDS011;29744;49.078;12.878;2023-04-03T22:11:15;0.47;;;0.40;;
44078;SDS011;29744;49.078;12.878;2023-04-03T22:16:16;0.98;;;0.50;;
44078;SDS011;29744;49.078;12.878;2023-04-03T22:21:16;0.60;;;0.40;;
44078;SDS011;29744;49.078;12.878;2023-04-03T22:26:16;0.80;;;0.60;;
44078;SDS011;29744;49.078;12.878;2023-04-03T22:31:17;0.40;;;0.40;;
44078;SDS011;29744;49.078;12.878;2023-04-03T22:36:17;0.32;;;0.32;;
44078;SDS011;29744;49.078;12.878;2023-04-03T22:41:18;0.47;;;0.47;;
44078;SDS011;29744;49.078;12.878;2023-04-03T22:46:18;0.63;;;0.43;;
44078;SDS011;29744;49.078;12.878;2023-04-03T22:51:19;0.30;;;0.30;;
44078;SDS011;29744;49.078;12.878;2023-04-03T22:56:19;0.52;;;0.40;;
44078;SDS011;29744;49.078;12.878;2023-04-03T23:01:20;1.00;;;0.50;;
44078;SDS011;29744;49.078;12.878;2023-04-03T23:06:22;0.75;;;0.50;;
44078;SDS011;29744;49.078;12.878;2023-04-03T23:11:23;0.90;;;0.44;;
44078;SDS011;29744;49.078;12.878;2023-04-03T23:16:23;0.73;;;0.50;;
44078;SDS011;29744;49.078;12.878;2023-04-03T23:21:23;0.68;;;0.30;;
44078;SDS011;29744;49.078;12.878;2023-04-03T23:26:24;0.50;;;0.38;;
44078;SDS011;29744;49.078;12.878;2023-04-03T23:31:25;0.82;;;0.40;;
44078;SDS011;29744;49.078;12.878;2023-04-03T23:36:25;0.20;;;0.20;;
44078;SDS011;29744;49.078;12.878;2023-04-03T23:41:26;0.30;;;0.20;;
44078;SDS011;29744;49.078;12.878;2023-04-03T23:46:26;0.60;;;0.40;;
44078;SDS011;29744;49.078;12.878;2023-04-03T23:51:26;0.57;;;0.50;;
44078;SDS011;29744;49.078;12.878;2023-04-03T23:56:27;0.90;;;0.47;;
